Overview Statistics Trail Chart Weather Telemetry Raw packets
 

This is the latest recevied weather packets stored in our database for station/object K1BES. If no packets are shown the sender has not sent any weather packets the latest 10 day(s).

<< 97 98 99 100 101 102 103 >>
Time Temp. Humidity Pressure Rain* Wind** Luminosity Snow
1787921866 30.56° C 69% 1019.7 hPa 0 mm - 65 W/m² -
1787921562 31.11° C 70% 1019.7 hPa 0 mm - 215 W/m² -
1787921255 30.56° C 71% 1019.6 hPa 0 mm - 176 W/m² -
1787920952 30° C 72% 1019.5 hPa 0 mm - 120 W/m² -
1787920647 29.44° C 75% 1019.4 hPa 0 mm - 104 W/m² -
1787920346 28.89° C 77% 1019.6 hPa 0 mm - 135 W/m² -
1787920043 27.78° C 80% 1019.5 hPa 0 mm - 136 W/m² -
1787919739 27.22° C 84% 1019.4 hPa 0 mm - 101 W/m² -
1787919437 26.11° C 87% 1019.5 hPa 0 mm - 66 W/m² -
1787919133 25.56° C 90% 1019.4 hPa 0 mm - 45 W/m² -
1787918833 25.56° C 92% 1019.5 hPa 0 mm - 33 W/m² -
1787918528 25.56° C 93% 1019.2 hPa 0 mm - 31 W/m² -
1787918226 25° C 95% 1019.3 hPa 0 mm - 28 W/m² -
1787917926 25° C 95% 1019.1 hPa 0 mm - 26 W/m² -
1787917622 25° C 95% 1019.1 hPa 0 mm - 24 W/m² -
1787917318 25° C 96% 1019.2 hPa 0 mm - 22 W/m² -
1787917017 25° C 96% 1019 hPa 0 mm - 19 W/m² -
1787916712 25° C 96% 1018.9 hPa 0 mm - 16 W/m² -
1787916407 25° C 96% 1018.9 hPa 0 mm - 13 W/m² -
1787916102 25° C 96% 1018.9 hPa 0 mm - 10 W/m² -
1787915797 25° C 96% 1018.8 hPa 0 mm - 6 W/m² -
1787915492 25° C 96% 1018.7 hPa 0 mm - 4 W/m² -
1787915187 25° C 95% 1019 hPa 0 mm - 2 W/m² -
1787914887 25° C 95% 1018.8 hPa 0 mm - 1 W/m² -
1787914585 25° C 95% 1018.7 hPa 0 mm - 0 W/m² -

* Rain latest hour (hover to see other rain measurements)
** Current wind speed in m/s (hover to see current wind gust speed)